Estherville, Iowa
Current Conditions -  °F | °C
As of 7:52 AM on Sunday 23 Nov 2014 (Local Time) from KEST Reporting Station
Haze Haze  
Wind Chill: 45°   Ceiling: 400
Heat Index: 49°   Visibility: 2.5mi
Dew Point: 48°   Wind: 10mph
Humidity: 97%   Direction: 200°SSW
Pressure: 29.45"   Gusts: NA
Location:  43.4°N, 94.84°W
Report Text: KEST 231352Z AUTO 20009KT 2 1/2SM BR OVC004 09/09 A2945 RMK AO2 SLP979 T00940089
Loading
Personal Weather Stations






























Interactive Weather Map New forecast layout! Learn more

10-Day Weather Forecast

Advertisements
Track Severe Weather on mobile